Terminal Aerodrome Forecast
Issued by NWS

Home | Current Version | Previous Version | Text Only | Print | Product List | Glossary On
Versions: 1 2 3 4 5 6 7 8 9 10 11 12 13 14 15 16
000
FTUS43 KAPX 010531
TAFAPN
TAF
KAPN 010531Z 0106/0206 11005KT P6SM SCT250
     FM011500 13009KT P6SM SCT250
     FM011800 13009KT P6SM VCSH BKN250
     FM020000 12006KT P6SM SHRA BKN080=

USA.gov is the U.S. government's official web portal to all federal, state and local government web resources and services.